Terminal Aerodrome Forecast
Issued by NWS

Home | Current Version | Previous Version | Text Only | Print | Product List | Glossary On
Versions: 1 2 3 4 5 6 7 8 9 10 11 12 13 14 15 16
000
FTUS43 KJKL 272200 AAB
TAFSME
TAF AMD
KSME 272226Z 2722/2818 23010G18KT P6SM VCSH SCT035 BKN100
     FM272300 27005KT P6SM VCTS SCT040CB
     FM280400 VRB03KT 3SM BR BKN030
     FM281300 29010KT P6SM SCT030=

USA.gov is the U.S. government's official web portal to all federal, state and local government web resources and services.